createdAt,value
2023-08-09T00:00:40.652Z,20.86
2023-08-09T00:03:08.909Z,20.83
2023-08-09T00:05:37.215Z,20.85
2023-08-09T00:08:05.842Z,20.84
2023-08-09T00:10:34.753Z,20.85
2023-08-09T00:13:05.548Z,20.87
2023-08-09T00:15:33.823Z,20.91
2023-08-09T00:18:02.391Z,20.87
2023-08-09T00:20:31.071Z,20.83
2023-08-09T00:23:00.330Z,20.78
2023-08-09T00:25:28.750Z,20.54
2023-08-09T00:27:57.229Z,20.35
2023-08-09T00:30:26.903Z,20.23
2023-08-09T00:32:55.193Z,20.22
2023-08-09T00:35:23.492Z,20.22
2023-08-09T00:37:52.156Z,20.26
2023-08-09T00:40:20.480Z,20.29
2023-08-09T00:42:48.613Z,20.34
2023-08-09T00:45:16.889Z,20.33
2023-08-09T00:47:46.706Z,20.29
2023-08-09T00:50:14.941Z,20.23
2023-08-09T00:52:43.189Z,20.21
2023-08-09T00:55:13.169Z,20.23
2023-08-09T00:57:41.712Z,20.24
2023-08-09T01:00:11.108Z,20.24
2023-08-09T01:02:39.609Z,20.28
2023-08-09T01:05:10.116Z,20.28
2023-08-09T01:07:46.754Z,20.26
2023-08-09T01:10:18.674Z,20.22
2023-08-09T01:12:52.283Z,20.21
2023-08-09T01:15:22.738Z,20.22
2023-08-09T01:17:53.397Z,20.24
2023-08-09T01:20:24.381Z,20.19
2023-08-09T01:22:59.060Z,20.15
2023-08-09T01:25:28.905Z,20.11
2023-08-09T01:27:57.974Z,20.10
2023-08-09T01:30:26.264Z,20.10
2023-08-09T01:32:54.600Z,20.05
2023-08-09T01:35:24.225Z,19.92
2023-08-09T01:37:55.230Z,19.81
2023-08-09T01:40:24.251Z,19.76
2023-08-09T01:42:54.316Z,19.76
2023-08-09T01:45:22.929Z,19.73
2023-08-09T01:47:51.790Z,19.73
2023-08-09T01:50:22.258Z,19.70
2023-08-09T01:52:50.491Z,19.71
2023-08-09T01:55:21.338Z,19.74
2023-08-09T01:57:50.389Z,19.75
2023-08-09T02:00:21.357Z,19.69
2023-08-09T02:02:50.383Z,19.59
2023-08-09T02:05:19.102Z,19.54
2023-08-09T02:07:47.994Z,19.50
2023-08-09T02:10:16.573Z,19.54
2023-08-09T02:12:49.238Z,19.56
2023-08-09T02:15:20.719Z,19.54
2023-08-09T02:17:50.511Z,19.53
2023-08-09T02:20:21.069Z,19.49
2023-08-09T02:22:50.140Z,19.46
2023-08-09T02:25:18.478Z,19.45
2023-08-09T02:27:48.122Z,19.40
2023-08-09T02:30:17.112Z,19.33
2023-08-09T02:32:46.952Z,19.16
2023-08-09T02:35:15.153Z,19.11
2023-08-09T02:37:43.471Z,19.09
2023-08-09T02:40:13.247Z,19.13
2023-08-09T02:42:41.579Z,19.15
2023-08-09T02:45:10.606Z,19.18
2023-08-09T02:47:39.154Z,19.22
2023-08-09T02:50:09.805Z,19.31
2023-08-09T02:52:37.955Z,19.38
2023-08-09T02:55:08.234Z,19.44
2023-08-09T02:57:36.492Z,19.45
2023-08-09T03:00:05.444Z,19.45
2023-08-09T03:02:34.181Z,19.41
2023-08-09T03:05:03.353Z,19.32
2023-08-09T03:07:32.972Z,19.21
2023-08-09T03:10:01.195Z,19.14
2023-08-09T03:12:29.371Z,19.06
2023-08-09T03:14:57.638Z,19.02
2023-08-09T03:17:25.900Z,18.93
2023-08-09T03:19:54.158Z,18.87
2023-08-09T03:22:22.388Z,18.75
2023-08-09T03:24:52.551Z,18.66
2023-08-09T03:27:20.698Z,18.60
2023-08-09T03:29:49.600Z,18.59
2023-08-09T03:32:17.740Z,18.56
2023-08-09T03:34:45.961Z,18.58
2023-08-09T03:37:14.149Z,18.63
2023-08-09T03:39:42.272Z,18.70
2023-08-09T03:42:11.892Z,18.77
2023-08-09T03:44:40.095Z,18.81
2023-08-09T03:47:08.513Z,18.82
2023-08-09T03:49:36.724Z,18.81
2023-08-09T03:52:05.272Z,18.81
2023-08-09T03:54:33.385Z,18.76
2023-08-09T03:57:01.829Z,18.66
2023-08-09T03:59:31.552Z,18.59
2023-08-09T04:01:59.756Z,18.55
2023-08-09T04:04:27.928Z,18.53
2023-08-09T04:06:56.534Z,18.54
2023-08-09T04:09:24.701Z,18.56
2023-08-09T04:11:53.219Z,18.58
2023-08-09T04:14:21.771Z,18.58
2023-08-09T04:16:51.330Z,18.61
2023-08-09T04:19:19.841Z,18.65
2023-08-09T04:21:48.071Z,18.65
2023-08-09T04:24:18.100Z,18.57
2023-08-09T04:26:46.679Z,18.47
2023-08-09T04:29:15.005Z,18.41
2023-08-09T04:31:43.261Z,18.41
2023-08-09T04:34:12.976Z,18.34
2023-08-09T04:36:41.270Z,18.25
2023-08-09T04:39:10.538Z,18.23
2023-08-09T04:41:38.777Z,18.23
2023-08-09T04:44:07.508Z,18.23
2023-08-09T04:46:35.729Z,18.22
2023-08-09T04:49:04.545Z,18.21
2023-08-09T04:51:34.120Z,18.25
2023-08-09T04:54:02.299Z,18.30
2023-08-09T04:56:30.730Z,18.39
2023-08-09T04:58:58.871Z,18.48
2023-08-09T05:01:27.120Z,18.50
2023-08-09T05:03:55.270Z,18.50
2023-08-09T05:06:23.748Z,18.43
2023-08-09T05:08:53.301Z,18.39
2023-08-09T05:11:21.455Z,18.32
2023-08-09T05:13:49.593Z,18.21
2023-08-09T05:16:18.807Z,18.13
2023-08-09T05:18:47.058Z,18.08
2023-08-09T05:21:15.260Z,18.06
2023-08-09T05:23:43.419Z,18.07
2023-08-09T05:26:12.946Z,18.16
2023-08-09T05:28:41.221Z,18.25
2023-08-09T05:31:09.532Z,18.29
2023-08-09T05:33:37.730Z,18.39
2023-08-09T05:36:06.236Z,18.47
2023-08-09T05:38:34.390Z,18.56
2023-08-09T05:41:02.710Z,18.59
2023-08-09T05:43:32.335Z,18.67
2023-08-09T05:46:01.344Z,18.75
2023-08-09T05:48:29.527Z,18.81
2023-08-09T05:50:57.704Z,18.82
2023-08-09T05:53:25.878Z,18.85
2023-08-09T05:55:54.094Z,18.84
2023-08-09T05:58:22.729Z,18.88
2023-08-09T06:00:52.356Z,19.00
2023-08-09T06:03:20.678Z,19.12
2023-08-09T06:05:48.997Z,19.23
2023-08-09T06:08:17.205Z,19.35
2023-08-09T06:10:45.454Z,19.47
2023-08-09T06:13:13.705Z,19.52
2023-08-09T06:15:41.959Z,19.54
2023-08-09T06:18:12.768Z,19.56
2023-08-09T06:20:42.621Z,19.46
2023-08-09T06:23:10.971Z,19.40
2023-08-09T06:25:39.590Z,19.45
2023-08-09T06:28:07.983Z,19.48
2023-08-09T06:30:36.384Z,19.46
2023-08-09T06:33:05.241Z,19.47
2023-08-09T06:35:34.889Z,19.47
2023-08-09T06:38:14.703Z,19.60
2023-08-09T06:40:44.333Z,19.81
2023-08-09T06:43:12.575Z,19.91
2023-08-09T06:45:39.957Z,20.11
2023-08-09T06:48:09.666Z,20.35
2023-08-09T06:50:39.449Z,20.64
2023-08-09T06:53:09.261Z,20.88
2023-08-09T06:55:37.535Z,21.01
2023-08-09T06:58:05.886Z,21.16
2023-08-09T07:00:34.119Z,21.34
2023-08-09T07:03:02.358Z,21.45
2023-08-09T07:05:30.629Z,21.58
2023-08-09T07:08:01.888Z,21.61
2023-08-09T07:10:30.648Z,21.68
2023-08-09T07:12:58.942Z,21.85
2023-08-09T07:15:27.890Z,22.14
2023-08-09T07:17:56.220Z,22.47
2023-08-09T07:20:24.531Z,22.70
2023-08-09T07:22:54.011Z,22.81
2023-08-09T07:25:23.780Z,22.91
2023-08-09T07:27:53.258Z,23.11
2023-08-09T07:30:22.623Z,23.30
2023-08-09T07:32:50.869Z,23.50
2023-08-09T07:35:20.036Z,23.70
2023-08-09T07:37:48.933Z,23.77
2023-08-09T07:40:17.570Z,23.69
2023-08-09T07:42:47.124Z,23.67
2023-08-09T07:45:15.576Z,23.54
2023-08-09T07:47:44.336Z,23.40
2023-08-09T07:50:13.046Z,23.41
2023-08-09T07:52:41.317Z,23.36
2023-08-09T07:55:10.703Z,23.35
2023-08-09T07:57:38.882Z,23.35
2023-08-09T08:00:15.118Z,23.34
2023-08-09T08:02:45.116Z,23.23
2023-08-09T08:05:14.937Z,23.25
2023-08-09T08:07:44.265Z,23.47
2023-08-09T08:10:15.968Z,23.74
2023-08-09T08:12:45.783Z,23.98
2023-08-09T08:15:15.524Z,24.30
2023-08-09T08:17:44.251Z,24.61
2023-08-09T08:20:17.005Z,24.95
2023-08-09T08:22:45.534Z,25.15
2023-08-09T08:25:14.343Z,25.23
2023-08-09T08:27:46.514Z,25.28
2023-08-09T08:30:18.417Z,25.37
2023-08-09T08:32:47.430Z,25.45
2023-08-09T08:35:16.058Z,25.59
2023-08-09T08:37:45.192Z,25.79
2023-08-09T08:40:18.984Z,25.95
2023-08-09T08:42:48.047Z,26.04
2023-08-09T08:45:17.766Z,26.25
2023-08-09T08:47:47.613Z,26.38
2023-08-09T08:50:17.665Z,26.38
2023-08-09T08:52:47.170Z,26.48
2023-08-09T08:55:15.819Z,26.62
2023-08-09T08:57:44.746Z,26.86
2023-08-09T09:00:26.636Z,27.13
2023-08-09T09:02:58.719Z,27.34
2023-08-09T09:05:27.294Z,27.31
2023-08-09T09:07:58.316Z,27.18
2023-08-09T09:10:27.383Z,27.05
2023-08-09T09:12:57.302Z,26.94
2023-08-09T09:15:26.565Z,26.74
2023-08-09T09:17:55.157Z,26.73
2023-08-09T09:20:28.813Z,26.90
2023-08-09T09:22:57.091Z,27.21
2023-08-09T09:25:26.261Z,27.31
2023-08-09T09:27:57.422Z,27.25
2023-08-09T09:30:30.960Z,27.23
2023-08-09T09:33:02.117Z,27.28
2023-08-09T09:35:34.081Z,27.25
2023-08-09T09:38:03.904Z,27.22
2023-08-09T09:40:36.194Z,27.16
2023-08-09T09:43:06.581Z,27.16
2023-08-09T09:45:36.156Z,27.15
2023-08-09T09:48:04.548Z,27.18
2023-08-09T09:50:35.449Z,27.24
2023-08-09T09:53:06.049Z,27.28
2023-08-09T09:55:34.663Z,27.26
2023-08-09T09:58:03.405Z,27.23
2023-08-09T10:00:33.529Z,27.24
2023-08-09T10:03:03.217Z,27.33
2023-08-09T10:05:37.128Z,27.46
2023-08-09T10:08:13.528Z,27.59
2023-08-09T10:10:44.616Z,27.64
2023-08-09T10:13:17.112Z,27.62
2023-08-09T10:15:49.368Z,27.62
2023-08-09T10:18:21.568Z,27.74
2023-08-09T10:20:53.578Z,27.73
2023-08-09T10:23:23.746Z,27.60
2023-08-09T10:25:52.875Z,27.56
2023-08-09T10:28:21.691Z,27.50
2023-08-09T10:30:51.493Z,27.42
2023-08-09T10:33:24.708Z,27.31
2023-08-09T10:35:55.690Z,27.17
2023-08-09T10:38:48.500Z,27.01
2023-08-09T10:41:17.756Z,26.96
2023-08-09T10:43:46.014Z,26.99
2023-08-09T10:46:21.825Z,27.04
2023-08-09T10:48:53.796Z,27.10
2023-08-09T10:51:25.300Z,27.17
2023-08-09T10:53:58.258Z,27.24
2023-08-09T10:56:35.083Z,27.34
2023-08-09T10:59:07.945Z,27.47
2023-08-09T11:01:37.260Z,27.57
2023-08-09T11:04:10.705Z,27.50
2023-08-09T11:06:44.056Z,27.37
2023-08-09T11:09:13.715Z,27.24
2023-08-09T11:11:43.272Z,27.20
2023-08-09T11:14:12.868Z,27.14
2023-08-09T11:16:41.321Z,27.16
2023-08-09T11:19:23.950Z,27.19
2023-08-09T11:21:59.101Z,27.20
2023-08-09T11:24:27.296Z,27.27
2023-08-09T11:26:56.871Z,27.34
2023-08-09T11:29:27.335Z,27.38
2023-08-09T11:31:58.277Z,27.37
2023-08-09T11:34:27.863Z,27.41
2023-08-09T11:36:58.418Z,27.34
2023-08-09T11:39:30.086Z,27.28
2023-08-09T11:41:59.121Z,27.26
2023-08-09T11:44:28.891Z,27.31
2023-08-09T11:46:58.307Z,27.37
2023-08-09T11:49:29.935Z,27.47
2023-08-09T11:52:01.585Z,27.53
2023-08-09T11:54:31.880Z,27.62
2023-08-09T11:57:01.023Z,27.67
2023-08-09T11:59:29.455Z,27.72
2023-08-09T12:02:00.124Z,27.70
2023-08-09T12:04:30.764Z,27.72
2023-08-09T12:07:03.591Z,27.72
2023-08-09T12:09:35.829Z,27.60
2023-08-09T12:12:09.485Z,27.51
2023-08-09T12:14:39.037Z,27.52
2023-08-09T12:17:07.919Z,27.55
2023-08-09T12:19:37.645Z,27.59
2023-08-09T12:22:07.544Z,27.58
2023-08-09T12:24:35.834Z,27.52
2023-08-09T12:27:06.319Z,27.51
2023-08-09T12:29:35.006Z,27.47
2023-08-09T12:32:03.376Z,27.39
2023-08-09T12:34:31.939Z,27.38
2023-08-09T12:37:01.169Z,27.39
2023-08-09T12:39:31.650Z,27.40
2023-08-09T12:42:01.098Z,27.40
2023-08-09T12:44:30.160Z,27.39
2023-08-09T12:46:58.529Z,27.39
2023-08-09T12:49:26.801Z,27.38
2023-08-09T12:51:55.007Z,27.35
2023-08-09T12:54:23.823Z,27.32
2023-08-09T12:56:54.997Z,27.31
2023-08-09T12:59:25.045Z,27.31
2023-08-09T13:01:53.314Z,27.31
2023-08-09T13:04:25.412Z,27.29
2023-08-09T13:06:54.495Z,27.24
2023-08-09T13:09:22.882Z,27.20
2023-08-09T13:12:05.647Z,27.19
2023-08-09T13:14:33.873Z,27.19
2023-08-09T13:17:02.150Z,27.19
2023-08-09T13:19:32.064Z,27.18
2023-08-09T13:22:00.460Z,27.17
2023-08-09T13:24:28.798Z,27.15
2023-08-09T13:26:58.355Z,27.14
2023-08-09T13:29:26.799Z,27.16
2023-08-09T13:31:55.103Z,27.17
2023-08-09T13:34:23.346Z,27.16
2023-08-09T13:36:51.535Z,27.16
2023-08-09T13:39:19.697Z,27.19
2023-08-09T13:41:47.898Z,27.20
2023-08-09T13:44:17.426Z,27.21
2023-08-09T13:46:45.619Z,27.22
2023-08-09T13:49:13.878Z,27.23
2023-08-09T13:51:42.085Z,27.26
2023-08-09T13:54:10.474Z,27.29
2023-08-09T13:56:38.625Z,27.30
2023-08-09T13:59:06.848Z,27.31
2023-08-09T14:01:36.607Z,27.33
2023-08-09T14:04:05.092Z,27.36
2023-08-09T14:06:33.620Z,27.39
2023-08-09T14:09:01.838Z,27.40
2023-08-09T14:11:30.007Z,27.43
2023-08-09T14:13:58.244Z,27.45
2023-08-09T14:16:26.515Z,27.48
2023-08-09T14:18:56.229Z,27.50
2023-08-09T14:21:24.429Z,27.53
2023-08-09T14:23:52.660Z,27.55
2023-08-09T14:26:20.800Z,27.55
2023-08-09T14:28:49.392Z,27.56
2023-08-09T14:31:17.602Z,27.56
2023-08-09T14:33:45.833Z,27.57
2023-08-09T14:36:15.426Z,27.57
2023-08-09T14:38:43.638Z,27.57
2023-08-09T14:41:12.104Z,27.54
2023-08-09T14:43:40.274Z,27.55
2023-08-09T14:46:08.520Z,27.57
2023-08-09T14:48:39.569Z,27.59
2023-08-09T14:51:10.722Z,27.60
2023-08-09T14:53:40.872Z,27.62
2023-08-09T14:56:09.878Z,27.64
2023-08-09T14:58:38.031Z,27.65
2023-08-09T15:01:06.352Z,27.64
2023-08-09T15:03:35.587Z,27.66
2023-08-09T15:06:04.000Z,27.69
2023-08-09T15:08:32.256Z,27.69
2023-08-09T15:11:02.401Z,27.72
2023-08-09T15:13:30.637Z,27.73
2023-08-09T15:15:58.803Z,27.71
2023-08-09T15:18:27.294Z,27.72
2023-08-09T15:20:55.647Z,27.73
2023-08-09T15:23:24.721Z,27.73
2023-08-09T15:25:52.858Z,27.74
2023-08-09T15:28:23.696Z,27.75
2023-08-09T15:30:51.903Z,27.80
2023-08-09T15:33:20.100Z,27.87
2023-08-09T15:35:48.366Z,27.91
2023-08-09T15:38:17.345Z,27.94
2023-08-09T15:40:45.492Z,27.92
2023-08-09T15:43:13.747Z,27.95
2023-08-09T15:45:43.306Z,28.00
2023-08-09T15:48:11.500Z,28.04
2023-08-09T15:50:39.762Z,28.10
2023-08-09T15:53:07.918Z,28.11
2023-08-09T15:55:36.166Z,28.16
2023-08-09T15:58:05.021Z,28.18
2023-08-09T16:00:41.974Z,28.17
2023-08-09T16:03:19.758Z,28.16
2023-08-09T16:05:48.686Z,28.16
2023-08-09T16:08:17.623Z,28.16
2023-08-09T16:10:45.826Z,28.14
2023-08-09T16:13:14.269Z,28.10
2023-08-09T16:15:42.467Z,28.04
2023-08-09T16:18:10.988Z,28.03
2023-08-09T16:20:40.966Z,27.97
2023-08-09T16:23:09.132Z,27.93
2023-08-09T16:25:37.846Z,27.90
2023-08-09T16:28:06.391Z,27.85
2023-08-09T16:30:34.594Z,27.83
2023-08-09T16:33:03.175Z,27.82
2023-08-09T16:35:31.496Z,27.80
2023-08-09T16:38:01.114Z,27.78
2023-08-09T16:40:29.387Z,27.74
2023-08-09T16:42:57.663Z,27.69
2023-08-09T16:45:26.075Z,27.66
2023-08-09T16:47:54.321Z,27.61
2023-08-09T16:50:22.826Z,27.57
2023-08-09T16:52:51.145Z,27.51
2023-08-09T16:55:22.973Z,27.47
2023-08-09T16:57:51.981Z,27.41
2023-08-09T17:00:20.480Z,27.40
2023-08-09T17:02:48.808Z,27.38
2023-08-09T17:05:20.154Z,27.36
2023-08-09T17:07:48.397Z,27.33
2023-08-09T17:10:16.677Z,27.30
2023-08-09T17:12:46.250Z,27.28
2023-08-09T17:15:14.576Z,27.28
2023-08-09T17:17:42.857Z,27.25
2023-08-09T17:20:11.839Z,27.21
2023-08-09T17:22:40.452Z,27.15
2023-08-09T17:25:10.132Z,27.11
2023-08-09T17:27:38.375Z,27.09
2023-08-09T17:30:10.159Z,27.07
2023-08-09T17:32:38.395Z,27.06
2023-08-09T17:35:08.246Z,27.06
2023-08-09T17:37:37.128Z,27.03
2023-08-09T17:40:05.945Z,27.01
2023-08-09T17:42:34.155Z,26.98
2023-08-09T17:45:04.889Z,26.96
2023-08-09T17:47:34.759Z,26.96
2023-08-09T17:50:03.470Z,26.94
2023-08-09T17:52:31.672Z,26.90
2023-08-09T17:54:59.906Z,26.91
2023-08-09T17:57:28.167Z,26.90
2023-08-09T17:59:56.689Z,26.91
2023-08-09T18:02:24.908Z,26.87
2023-08-09T18:04:54.510Z,26.87
2023-08-09T18:07:22.874Z,26.86
2023-08-09T18:09:51.005Z,26.84
2023-08-09T18:12:19.244Z,26.83
2023-08-09T18:14:47.624Z,26.84
2023-08-09T18:17:16.092Z,26.83
2023-08-09T18:19:44.396Z,26.81
2023-08-09T18:22:14.022Z,26.77
2023-08-09T18:24:42.197Z,26.73
2023-08-09T18:27:10.796Z,26.72
2023-08-09T18:29:39.093Z,26.68
2023-08-09T18:32:09.202Z,26.63
2023-08-09T18:34:37.463Z,26.55
2023-08-09T18:37:06.040Z,26.46
2023-08-09T18:39:36.585Z,26.40
2023-08-09T18:42:05.002Z,26.38
2023-08-09T18:44:33.212Z,26.36
2023-08-09T18:47:01.798Z,26.31
2023-08-09T18:49:30.272Z,26.29
2023-08-09T18:51:58.461Z,26.29
2023-08-09T18:54:26.693Z,26.30
2023-08-09T18:56:56.277Z,26.30
2023-08-09T18:59:25.242Z,26.28
2023-08-09T19:01:53.538Z,26.26
2023-08-09T19:04:21.773Z,26.22
2023-08-09T19:06:50.004Z,26.22
2023-08-09T19:09:18.349Z,26.16
2023-08-09T19:11:46.853Z,26.11
2023-08-09T19:14:16.481Z,26.07
2023-08-09T19:16:44.685Z,26.04
2023-08-09T19:19:14.187Z,26.04
2023-08-09T19:21:42.364Z,26.03
2023-08-09T19:24:10.596Z,26.01
2023-08-09T19:26:39.334Z,25.97
2023-08-09T19:29:07.899Z,25.96
2023-08-09T19:31:37.516Z,25.94
2023-08-09T19:34:06.193Z,25.92
2023-08-09T19:36:34.499Z,25.91
2023-08-09T19:39:02.732Z,25.87
2023-08-09T19:41:30.880Z,25.87
2023-08-09T19:43:59.005Z,25.84
2023-08-09T19:46:27.196Z,25.75
2023-08-09T19:48:56.896Z,25.68
2023-08-09T19:51:25.066Z,25.65
2023-08-09T19:53:53.360Z,25.59
2023-08-09T19:56:21.494Z,25.55
2023-08-09T19:58:49.653Z,25.52
2023-08-09T20:01:20.263Z,25.49
2023-08-09T20:03:48.594Z,25.49
2023-08-09T20:06:18.237Z,25.52
2023-08-09T20:08:46.482Z,25.54
2023-08-09T20:11:14.797Z,25.53
2023-08-09T20:13:43.087Z,25.50
2023-08-09T20:16:11.530Z,25.47
2023-08-09T20:18:40.463Z,25.44
2023-08-09T20:21:08.925Z,25.44
2023-08-09T20:23:38.606Z,25.44
2023-08-09T20:26:06.825Z,25.44
2023-08-09T20:28:35.132Z,25.42
2023-08-09T20:31:04.196Z,25.41
2023-08-09T20:33:32.392Z,25.40
2023-08-09T20:36:00.652Z,25.33
2023-08-09T20:38:28.954Z,25.33
2023-08-09T20:41:00.239Z,25.31
2023-08-09T20:43:29.089Z,25.30
2023-08-09T20:45:57.337Z,25.30
2023-08-09T20:48:25.508Z,25.30
2023-08-09T20:50:58.059Z,25.28
2023-08-09T20:53:26.625Z,25.28
2023-08-09T20:55:54.780Z,25.26
2023-08-09T20:58:24.380Z,25.26
2023-08-09T21:00:52.500Z,25.25
2023-08-09T21:03:20.807Z,25.19
2023-08-09T21:05:56.825Z,25.14
2023-08-09T21:08:25.170Z,25.11
2023-08-09T21:10:53.601Z,25.07
2023-08-09T21:13:23.371Z,25.03
2023-08-09T21:15:51.617Z,24.95
2023-08-09T21:18:20.174Z,24.92
2023-08-09T21:20:49.349Z,24.89
2023-08-09T21:23:17.782Z,24.83
2023-08-09T21:25:46.851Z,24.82
2023-08-09T21:30:51.130Z,24.79
2023-08-09T21:33:19.253Z,24.74
2023-08-09T21:35:47.393Z,24.71
2023-08-09T21:38:17.921Z,24.71
2023-08-09T21:40:46.149Z,24.71
2023-08-09T21:43:14.304Z,24.69
2023-08-09T21:45:42.598Z,24.70
2023-08-09T21:48:12.236Z,24.69
2023-08-09T21:50:42.909Z,24.70
2023-08-09T21:53:11.005Z,24.70
2023-08-09T21:55:39.125Z,24.68
2023-08-09T21:58:07.625Z,24.69
2023-08-09T22:00:35.795Z,24.66
2023-08-09T22:03:04.049Z,24.57
2023-08-09T22:05:33.650Z,24.50
2023-08-09T22:08:03.769Z,24.44
2023-08-09T22:10:32.482Z,24.37
2023-08-09T22:13:00.832Z,24.27
2023-08-09T22:15:29.056Z,24.22
2023-08-09T22:17:57.241Z,24.17
2023-08-09T22:20:25.760Z,24.17
2023-08-09T22:22:56.027Z,24.16
2023-08-09T22:25:24.195Z,24.10
2023-08-09T22:27:52.529Z,24.04
2023-08-09T22:30:20.915Z,24.02
2023-08-09T22:32:49.449Z,23.99
2023-08-09T22:35:17.598Z,23.97
2023-08-09T22:37:45.759Z,23.99
2023-08-09T22:40:15.359Z,23.98
2023-08-09T22:42:43.493Z,23.96
2023-08-09T22:45:11.706Z,23.89
2023-08-09T22:47:39.939Z,23.87
2023-08-09T22:50:09.393Z,23.83
2023-08-09T22:52:37.573Z,23.81
2023-08-09T22:55:08.013Z,23.75
2023-08-09T22:57:37.748Z,23.70
2023-08-09T23:00:10.172Z,23.67
2023-08-09T23:02:38.400Z,23.64
2023-08-09T23:05:07.296Z,23.64
2023-08-09T23:07:35.633Z,23.66
2023-08-09T23:10:04.004Z,23.66
2023-08-09T23:12:35.500Z,23.66
2023-08-09T23:15:06.153Z,23.65
2023-08-09T23:17:34.619Z,23.60
2023-08-09T23:20:06.559Z,23.56
2023-08-09T23:22:35.133Z,23.48
2023-08-09T23:25:04.003Z,23.44
2023-08-09T23:27:32.129Z,23.41
2023-08-09T23:30:00.246Z,23.39
2023-08-09T23:32:29.807Z,23.40
2023-08-09T23:34:58.300Z,23.41
2023-08-09T23:37:26.483Z,23.43
2023-08-09T23:39:54.734Z,23.44
2023-08-09T23:42:22.840Z,23.43
2023-08-09T23:44:50.983Z,23.35
2023-08-09T23:47:19.077Z,23.30
2023-08-09T23:49:48.768Z,23.26
2023-08-09T23:52:16.941Z,23.24
2023-08-09T23:54:45.087Z,23.19
2023-08-09T23:57:13.234Z,23.12
2023-08-09T23:59:41.355Z,23.10
